Mostly Cloudy Current Weather (METAR) For Manchester Airport

All times on the weather descriptions are local

Observed at 16:50 - (25 mins ago)

Mostly Cloudy

14°C

Mostly Cloudy
Clouds: Few Clouds at 700ft, Scattered Clouds at 2,700ft, Broken Clouds at 3,500ft
Wind: 320° at 07 knots, varying from 280° to 350
Visibility: Greater than 10km
QNH: 1026
Dew Point: 12°C
Runway in Use:
Runways 23L/R - 05L/R has a direct crosswind

Sunrise Today: 07:09
Sunset Today: 18:47

Forecast Weather (TAF) For Manchester Airport

Issued at 01:00 - (30 days ago)


Runway in Use: Likely Runways 23L/R

Forecast valid until 01:00 on Friday

METAR/TAF RAW METAR / TAF

EGCC 011550Z 32007KT 280V350 9999 FEW007 SCT027 BKN035 14/12 Q1026 NOSIG

Weather Widget

Put weather from any of our airports on your website with our weather widget.

Find Another Search

Airport Search


Please Wait Please Wait - Loading
Close
Close

Login

Username:

Password:

Remember Me:

Remember me on this computer

Forgotten your password? Get a reset password sent to your registered e-mail address

Close

User Private Message

Subject:

Message: